createdAt,value
2022-10-09T00:02:01.573Z,6.05
2022-10-09T00:04:07.079Z,4.18
2022-10-09T00:06:15.764Z,4.13
2022-10-09T00:08:24.155Z,4.32
2022-10-09T00:10:30.128Z,5.28
2022-10-09T00:12:35.475Z,4.40
2022-10-09T00:14:40.895Z,4.25
2022-10-09T00:16:48.550Z,4.00
2022-10-09T00:18:54.688Z,4.20
2022-10-09T00:21:00.355Z,4.30
2022-10-09T00:23:05.779Z,4.05
2022-10-09T00:25:13.741Z,4.00
2022-10-09T00:27:19.149Z,4.15
2022-10-09T00:29:24.581Z,5.15
2022-10-09T00:31:29.790Z,4.55
2022-10-09T00:33:34.800Z,4.20
2022-10-09T00:35:41.414Z,4.00
2022-10-09T00:37:46.435Z,3.92
2022-10-09T00:39:51.980Z,3.92
2022-10-09T00:42:00.222Z,4.25
2022-10-09T00:46:36.907Z,3.80
2022-10-09T00:48:41.988Z,3.40
2022-10-09T00:50:52.450Z,3.90
2022-10-09T00:53:01.309Z,3.90
2022-10-09T00:55:09.239Z,3.88
2022-10-09T00:57:17.101Z,4.00
2022-10-09T01:01:28.214Z,4.00
2022-10-09T01:03:33.981Z,5.15
2022-10-09T01:05:52.866Z,3.20
2022-10-09T01:08:08.668Z,3.78
2022-10-09T01:10:29.856Z,3.70
2022-10-09T01:12:51.844Z,3.63
2022-10-09T01:15:10.576Z,4.97
2022-10-09T01:17:22.841Z,3.40
2022-10-09T01:19:47.735Z,4.30
2022-10-09T01:22:05.657Z,4.72
2022-10-09T01:26:41.809Z,3.25
2022-10-09T01:28:55.342Z,3.10
2022-10-09T01:31:04.078Z,3.42
2022-10-09T01:33:09.960Z,7.40
2022-10-09T01:35:17.687Z,6.72
2022-10-09T01:37:25.312Z,5.22
2022-10-09T01:39:32.395Z,3.80
2022-10-09T01:41:38.693Z,4.53
2022-10-09T01:43:44.597Z,4.15
2022-10-09T01:45:52.750Z,5.40
2022-10-09T01:47:58.049Z,4.13
2022-10-09T01:50:12.302Z,5.15
2022-10-09T01:52:32.545Z,6.90
2022-10-09T01:54:48.418Z,5.65
2022-10-09T01:56:58.255Z,5.32
2022-10-09T01:59:14.813Z,5.07
2022-10-09T02:01:30.599Z,4.35
2022-10-09T02:03:38.991Z,5.20
2022-10-09T02:05:47.419Z,4.22
2022-10-09T02:09:59.412Z,5.68
2022-10-09T02:12:10.273Z,7.30
2022-10-09T02:14:15.458Z,5.93
2022-10-09T02:16:36.916Z,6.15
2022-10-09T02:18:47.912Z,5.93
2022-10-09T02:20:59.832Z,5.40
2022-10-09T02:23:08.972Z,5.18
2022-10-09T02:25:14.696Z,5.80
2022-10-09T02:27:21.791Z,4.63
2022-10-09T02:29:27.515Z,3.83
2022-10-09T02:31:39.964Z,5.40
2022-10-09T02:33:45.084Z,4.20
2022-10-09T02:35:50.757Z,5.70
2022-10-09T02:37:55.849Z,5.80
2022-10-09T02:40:01.377Z,5.60
2022-10-09T02:42:07.062Z,5.10
2022-10-09T02:44:12.234Z,4.47
2022-10-09T02:46:17.752Z,6.65
2022-10-09T02:48:26.001Z,6.57
2022-10-09T02:52:33.800Z,4.97
2022-10-09T02:54:39.575Z,5.15
2022-10-09T02:56:44.676Z,4.60
2022-10-09T02:58:50.332Z,4.38
2022-10-09T03:00:57.036Z,4.10
2022-10-09T03:03:02.245Z,4.72
2022-10-09T03:05:11.277Z,4.80
2022-10-09T03:07:16.638Z,4.65
2022-10-09T03:09:21.981Z,5.18
2022-10-09T03:11:29.006Z,5.53
2022-10-09T03:13:34.081Z,5.17
2022-10-09T03:15:40.483Z,5.22
2022-10-09T03:17:45.615Z,4.78
2022-10-09T03:19:51.237Z,5.03
2022-10-09T03:21:58.806Z,5.05
2022-10-09T03:24:05.487Z,5.00
2022-10-09T03:26:14.314Z,4.53
2022-10-09T03:28:19.319Z,6.68
2022-10-09T03:30:25.282Z,5.47
2022-10-09T03:32:30.408Z,4.85
2022-10-09T03:34:35.910Z,5.32
2022-10-09T03:36:41.026Z,5.20
2022-10-09T03:38:48.692Z,7.35
2022-10-09T03:40:55.093Z,5.95
2022-10-09T03:43:00.398Z,7.10
2022-10-09T03:45:06.250Z,7.82
2022-10-09T03:47:11.981Z,6.40
2022-10-09T03:49:18.227Z,6.88
2022-10-09T03:51:23.301Z,6.15
2022-10-09T03:53:29.403Z,6.13
2022-10-09T03:55:37.317Z,7.38
2022-10-09T03:57:42.529Z,6.82
2022-10-09T03:59:47.560Z,8.07
2022-10-09T04:01:52.925Z,6.70
2022-10-09T04:03:58.703Z,6.35
2022-10-09T04:06:03.779Z,7.47
2022-10-09T04:08:09.965Z,6.20
2022-10-09T04:10:15.257Z,11.05
2022-10-09T04:12:22.856Z,7.97
2022-10-09T04:14:28.234Z,8.15
2022-10-09T04:16:33.343Z,7.55
2022-10-09T04:18:39.498Z,7.13
2022-10-09T04:20:51.548Z,6.65
2022-10-09T04:22:56.815Z,6.90
2022-10-09T04:25:02.190Z,7.97
2022-10-09T04:27:07.541Z,5.80
2022-10-09T04:29:15.979Z,5.60
2022-10-09T04:31:21.111Z,5.82
2022-10-09T04:33:26.786Z,5.40
2022-10-09T04:35:32.472Z,5.32
2022-10-09T04:37:37.463Z,6.15
2022-10-09T04:39:43.348Z,6.32
2022-10-09T04:41:48.426Z,5.22
2022-10-09T04:43:58.042Z,5.70
2022-10-09T04:46:08.652Z,4.93
2022-10-09T04:48:13.746Z,5.28
2022-10-09T04:50:19.345Z,6.05
2022-10-09T04:52:36.045Z,6.60
2022-10-09T04:54:41.421Z,6.95
2022-10-09T04:56:46.537Z,6.40
2022-10-09T04:58:52.183Z,6.75
2022-10-09T05:00:57.765Z,7.22
2022-10-09T05:03:05.953Z,7.18
2022-10-09T05:05:12.768Z,6.10
2022-10-09T05:07:17.823Z,7.18
2022-10-09T05:09:22.841Z,6.43
2022-10-09T05:11:30.007Z,6.57
2022-10-09T05:13:37.683Z,6.10
2022-10-09T05:15:43.022Z,6.32
2022-10-09T05:17:48.351Z,6.53
2022-10-09T05:19:56.381Z,6.38
2022-10-09T05:24:10.417Z,5.15
2022-10-09T05:26:19.903Z,5.60
2022-10-09T05:28:25.099Z,6.13
2022-10-09T05:30:31.216Z,5.22
2022-10-09T05:32:36.432Z,6.80
2022-10-09T05:34:41.487Z,6.38
2022-10-09T05:36:49.848Z,5.78
2022-10-09T05:41:02.378Z,6.43
2022-10-09T05:43:07.600Z,5.88
2022-10-09T05:45:14.254Z,6.03
2022-10-09T05:47:19.984Z,6.68
2022-10-09T05:49:25.401Z,5.72
2022-10-09T05:51:33.447Z,7.03
2022-10-09T05:55:47.543Z,7.07
2022-10-09T05:57:52.615Z,6.30
2022-10-09T05:59:58.021Z,6.03
2022-10-09T06:02:03.493Z,5.75
2022-10-09T06:04:11.310Z,7.78
2022-10-09T06:06:16.395Z,7.00
2022-10-09T06:08:21.461Z,6.43
2022-10-09T06:10:32.528Z,6.82
2022-10-09T06:12:38.043Z,7.68
2022-10-09T06:14:43.120Z,6.78
2022-10-09T06:16:49.124Z,7.18
2022-10-09T06:18:55.723Z,7.78
2022-10-09T06:21:04.824Z,6.88
2022-10-09T06:23:09.967Z,7.38
2022-10-09T06:25:15.085Z,8.07
2022-10-09T06:27:23.429Z,6.93
2022-10-09T06:31:35.516Z,6.45
2022-10-09T06:33:43.611Z,6.10
2022-10-09T06:35:48.944Z,7.20
2022-10-09T06:37:54.037Z,7.40
2022-10-09T06:39:59.092Z,7.88
2022-10-09T06:42:04.707Z,6.13
2022-10-09T06:44:21.469Z,7.22
2022-10-09T06:50:40.041Z,7.10
2022-10-09T06:52:46.162Z,6.80
2022-10-09T06:54:51.411Z,7.80
2022-10-09T06:56:57.716Z,6.93
2022-10-09T06:59:04.323Z,7.60
2022-10-09T07:01:16.068Z,6.95
2022-10-09T07:03:21.251Z,6.93
2022-10-09T07:05:26.448Z,10.35
2022-10-09T07:07:31.906Z,5.55
2022-10-09T07:09:37.507Z,6.10
2022-10-09T07:11:45.624Z,5.90
2022-10-09T07:13:52.746Z,5.40
2022-10-09T07:16:01.317Z,4.80
2022-10-09T07:18:12.134Z,5.38
2022-10-09T07:20:17.411Z,5.93
2022-10-09T07:22:26.760Z,6.00
2022-10-09T07:24:32.620Z,6.60
2022-10-09T07:26:40.221Z,5.57
2022-10-09T07:30:51.877Z,5.70
2022-10-09T07:32:56.948Z,6.70
2022-10-09T07:35:05.113Z,5.93
2022-10-09T07:37:10.578Z,6.00
2022-10-09T07:39:15.691Z,5.38
2022-10-09T07:41:21.618Z,5.60
2022-10-09T07:43:26.799Z,6.05
2022-10-09T07:45:31.908Z,5.78
2022-10-09T07:47:37.296Z,6.18
2022-10-09T07:49:42.433Z,4.75
2022-10-09T07:51:50.220Z,4.53
2022-10-09T07:53:57.699Z,4.78
2022-10-09T07:56:02.774Z,5.93
2022-10-09T07:58:08.175Z,3.95
2022-10-09T08:00:15.525Z,4.82
2022-10-09T08:02:20.635Z,4.90
2022-10-09T08:04:26.459Z,4.68
2022-10-09T08:06:32.748Z,4.53
2022-10-09T08:08:41.148Z,4.50
2022-10-09T08:10:46.317Z,5.05
2022-10-09T08:12:51.785Z,5.18
2022-10-09T08:14:57.256Z,4.78
2022-10-09T08:17:02.970Z,5.32
2022-10-09T08:19:08.128Z,4.57
2022-10-09T08:21:17.359Z,5.72
2022-10-09T08:23:24.934Z,5.85
2022-10-09T08:25:33.092Z,6.32
2022-10-09T08:27:39.037Z,4.93
2022-10-09T08:29:44.112Z,8.43
2022-10-09T08:31:49.829Z,7.25
2022-10-09T08:33:56.366Z,4.45
2022-10-09T08:36:09.708Z,4.88
2022-10-09T08:38:45.554Z,8.98
2022-10-09T08:40:58.363Z,6.90
2022-10-09T08:43:07.853Z,4.78
2022-10-09T08:45:18.309Z,5.47
2022-10-09T08:47:29.368Z,5.10
2022-10-09T08:49:46.779Z,6.15
2022-10-09T08:51:52.736Z,5.60
2022-10-09T08:54:05.774Z,6.75
2022-10-09T08:56:17.908Z,6.43
2022-10-09T08:58:24.471Z,5.35
2022-10-09T09:00:36.595Z,5.53
2022-10-09T09:03:05.169Z,4.97
2022-10-09T09:05:27.000Z,5.72
2022-10-09T09:07:39.624Z,4.82
2022-10-09T09:09:56.805Z,5.50
2022-10-09T09:12:13.825Z,5.97
2022-10-09T09:16:51.220Z,5.30
2022-10-09T09:19:15.988Z,5.10
2022-10-09T09:21:38.800Z,5.38
2022-10-09T09:23:49.193Z,5.30
2022-10-09T09:25:54.798Z,5.57
2022-10-09T09:28:16.533Z,6.22
2022-10-09T09:30:26.935Z,5.65
2022-10-09T09:32:35.463Z,5.65
2022-10-09T09:34:44.436Z,5.28
2022-10-09T09:36:54.605Z,6.10
2022-10-09T09:39:45.481Z,6.03
2022-10-09T09:41:25.439Z,5.93
2022-10-09T09:43:33.187Z,5.97
2022-10-09T09:45:38.333Z,5.72
2022-10-09T09:47:48.612Z,6.30
2022-10-09T09:49:59.970Z,6.07
2022-10-09T09:52:05.836Z,7.00
2022-10-09T09:54:20.703Z,7.47
2022-10-09T09:56:59.810Z,6.70
2022-10-09T10:01:24.315Z,6.07
2022-10-09T10:03:30.552Z,6.57
2022-10-09T10:05:40.187Z,6.53
2022-10-09T10:07:45.424Z,6.57
2022-10-09T10:09:50.791Z,6.93
2022-10-09T10:12:00.246Z,7.47
2022-10-09T10:14:16.322Z,6.40
2022-10-09T10:16:26.672Z,6.78
2022-10-09T10:18:39.654Z,6.80
2022-10-09T10:20:48.769Z,6.43
2022-10-09T10:22:59.401Z,7.38
2022-10-09T10:25:04.839Z,6.88
2022-10-09T10:27:20.283Z,6.00
2022-10-09T10:29:36.098Z,6.25
2022-10-09T10:31:53.588Z,5.90
2022-10-09T10:34:00.284Z,6.35
2022-10-09T10:36:05.511Z,5.47
2022-10-09T10:38:16.640Z,4.65
2022-10-09T10:40:27.666Z,4.93
2022-10-09T10:42:50.704Z,4.82
2022-10-09T10:45:06.679Z,4.60
2022-10-09T10:47:21.206Z,4.15
2022-10-09T10:49:31.670Z,4.00
2022-10-09T10:51:58.425Z,4.05
2022-10-09T10:54:17.316Z,3.47
2022-10-09T10:56:31.237Z,3.00
2022-10-09T10:58:48.493Z,2.55
2022-10-09T11:01:21.467Z,2.70
2022-10-09T11:03:43.057Z,1.77
2022-10-09T11:05:58.071Z,1.45
2022-10-09T11:08:24.061Z,1.30
2022-10-09T11:10:41.035Z,1.42
2022-10-09T11:12:54.582Z,1.70
2022-10-09T11:15:08.320Z,1.70
2022-10-09T11:17:27.007Z,1.50
2022-10-09T11:20:03.094Z,1.20
2022-10-09T11:22:22.521Z,1.00
2022-10-09T11:25:05.998Z,1.00
2022-10-09T11:27:19.086Z,0.80
2022-10-09T11:29:31.267Z,0.70
2022-10-09T11:31:42.256Z,0.80
2022-10-09T11:33:54.943Z,0.82
2022-10-09T11:36:05.779Z,0.68
2022-10-09T11:38:27.311Z,0.80
2022-10-09T11:40:37.207Z,0.77
2022-10-09T11:42:43.710Z,0.73
2022-10-09T11:45:04.096Z,0.93
2022-10-09T11:47:21.016Z,0.52
2022-10-09T11:49:38.651Z,0.73
2022-10-09T11:51:50.693Z,0.80
2022-10-09T11:53:57.428Z,0.90
2022-10-09T11:56:09.203Z,0.75
2022-10-09T11:58:26.035Z,0.60
2022-10-09T12:00:35.007Z,0.63
2022-10-09T12:02:41.242Z,0.77
2022-10-09T12:04:56.274Z,0.70
2022-10-09T12:07:05.068Z,0.70
2022-10-09T12:09:11.632Z,0.60
2022-10-09T12:11:20.682Z,0.50
2022-10-09T12:13:51.968Z,0.40
2022-10-09T12:16:00.768Z,0.50
2022-10-09T12:18:19.800Z,0.57
2022-10-09T12:20:29.981Z,0.45
2022-10-09T12:22:42.889Z,0.50
2022-10-09T12:24:51.937Z,0.50
2022-10-09T12:26:59.396Z,0.60
2022-10-09T12:29:06.875Z,0.63
2022-10-09T12:31:27.782Z,0.80
2022-10-09T12:33:40.839Z,0.70
2022-10-09T12:35:51.007Z,0.80
2022-10-09T12:37:56.360Z,0.50
2022-10-09T12:40:12.262Z,1.25
2022-10-09T12:42:23.329Z,1.38
2022-10-09T12:44:34.252Z,0.80
2022-10-09T12:46:42.088Z,0.80
2022-10-09T12:48:47.575Z,0.63
2022-10-09T12:50:56.448Z,0.57
2022-10-09T12:53:05.048Z,0.70
2022-10-09T12:55:26.716Z,0.50
2022-10-09T12:57:32.703Z,0.70
2022-10-09T12:59:38.175Z,0.60
2022-10-09T13:01:45.248Z,0.80
2022-10-09T13:03:58.354Z,1.23
2022-10-09T13:06:08.483Z,1.30
2022-10-09T13:08:28.569Z,1.20
2022-10-09T13:10:34.125Z,0.88
2022-10-09T13:12:40.347Z,0.85
2022-10-09T13:14:48.105Z,1.07
2022-10-09T13:19:03.738Z,0.80
2022-10-09T13:21:29.077Z,1.10
2022-10-09T13:23:38.639Z,0.70
2022-10-09T13:25:45.791Z,0.95
2022-10-09T13:27:51.799Z,0.70
2022-10-09T13:29:57.831Z,1.15
2022-10-09T13:32:03.349Z,1.65
2022-10-09T13:34:16.369Z,1.42
2022-10-09T13:36:24.201Z,0.98
2022-10-09T13:38:34.019Z,0.55
2022-10-09T13:40:40.008Z,0.65
2022-10-09T13:42:52.675Z,0.90
2022-10-09T13:44:58.225Z,0.93
2022-10-09T13:47:03.337Z,0.95
2022-10-09T13:49:09.100Z,0.68
2022-10-09T13:51:14.522Z,0.88
2022-10-09T13:53:22.208Z,1.38
2022-10-09T13:55:27.406Z,0.75
2022-10-09T13:57:33.338Z,1.10
2022-10-09T13:59:39.366Z,1.60
2022-10-09T14:01:44.603Z,1.50
2022-10-09T14:03:50.138Z,1.20
2022-10-09T14:06:01.761Z,1.65
2022-10-09T14:08:07.902Z,0.75
2022-10-09T14:10:19.237Z,1.02
2022-10-09T14:12:26.674Z,0.60
2022-10-09T14:14:31.715Z,0.63
2022-10-09T14:16:37.283Z,0.50
2022-10-09T14:18:43.167Z,0.82
2022-10-09T14:20:48.923Z,1.10
2022-10-09T14:22:54.633Z,1.23
2022-10-09T14:25:00.098Z,0.77
2022-10-09T14:27:08.384Z,0.70
2022-10-09T14:29:14.331Z,0.90
2022-10-09T14:31:23.174Z,0.90
2022-10-09T14:33:29.640Z,0.85
2022-10-09T14:35:34.789Z,0.80
2022-10-09T14:37:42.150Z,4.57
2022-10-09T14:39:48.500Z,3.20
2022-10-09T14:41:54.112Z,1.00
2022-10-09T14:44:03.315Z,1.00
2022-10-09T14:46:12.494Z,0.80
2022-10-09T14:48:17.624Z,1.13
2022-10-09T14:50:22.792Z,0.85
2022-10-09T14:52:28.700Z,0.60
2022-10-09T14:54:33.773Z,0.70
2022-10-09T14:56:39.673Z,0.55
2022-10-09T14:58:45.088Z,0.77
2022-10-09T15:00:53.076Z,0.70
2022-10-09T15:02:59.765Z,0.47
2022-10-09T15:05:05.317Z,0.60
2022-10-09T15:07:10.772Z,0.70
2022-10-09T15:09:16.082Z,0.55
2022-10-09T15:11:21.173Z,0.70
2022-10-09T15:13:26.249Z,0.70
2022-10-09T15:15:32.867Z,0.90
2022-10-09T15:17:41.029Z,1.35
2022-10-09T15:19:46.108Z,1.10
2022-10-09T15:21:52.141Z,0.80
2022-10-09T15:24:10.474Z,0.70
2022-10-09T15:26:18.897Z,0.73
2022-10-09T15:28:24.375Z,0.52
2022-10-09T15:30:29.733Z,0.93
2022-10-09T15:32:35.151Z,1.15
2022-10-09T15:34:43.181Z,1.40
2022-10-09T15:36:49.733Z,1.20
2022-10-09T15:38:54.832Z,0.90
2022-10-09T15:41:00.536Z,0.98
2022-10-09T15:43:06.084Z,0.90
2022-10-09T15:45:12.537Z,0.70
2022-10-09T15:47:27.087Z,0.73
2022-10-09T15:49:52.592Z,0.70
2022-10-09T15:51:58.510Z,0.73
2022-10-09T15:54:04.407Z,0.98
2022-10-09T15:56:10.297Z,0.80
2022-10-09T15:58:16.561Z,0.68
2022-10-09T16:00:22.135Z,1.40
2022-10-09T16:02:27.182Z,0.80
2022-10-09T16:04:33.465Z,0.60
2022-10-09T16:06:41.229Z,0.88
2022-10-09T16:08:47.313Z,1.00
2022-10-09T16:10:53.996Z,1.40
2022-10-09T16:12:59.071Z,1.80
2022-10-09T16:15:04.591Z,1.83
2022-10-09T16:17:11.472Z,2.88
2022-10-09T16:19:17.112Z,3.22
2022-10-09T16:21:26.143Z,3.35
2022-10-09T16:23:33.940Z,2.20
2022-10-09T16:25:41.945Z,1.40
2022-10-09T16:29:52.008Z,1.35
2022-10-09T16:31:58.735Z,1.60
2022-10-09T16:34:04.900Z,1.50
2022-10-09T16:36:11.375Z,1.58
2022-10-09T16:38:16.917Z,1.35
2022-10-09T16:40:37.427Z,1.17
2022-10-09T16:42:50.849Z,1.42
2022-10-09T16:44:56.393Z,1.90
2022-10-09T16:47:01.615Z,1.42
2022-10-09T16:49:07.179Z,1.40
2022-10-09T16:51:14.628Z,1.88
2022-10-09T16:53:19.708Z,1.73
2022-10-09T16:55:27.890Z,1.77
2022-10-09T16:57:33.008Z,1.50
2022-10-09T16:59:38.685Z,1.50
2022-10-09T17:01:46.536Z,1.48
2022-10-09T17:03:51.566Z,1.60
2022-10-09T17:05:56.678Z,1.45
2022-10-09T17:08:01.689Z,1.38
2022-10-09T17:10:08.025Z,1.23
2022-10-09T17:12:16.224Z,1.60
2022-10-09T17:14:21.263Z,1.30
2022-10-09T17:16:30.948Z,1.77
2022-10-09T17:18:36.763Z,1.35
2022-10-09T17:20:42.089Z,1.80
2022-10-09T17:22:48.727Z,1.33
2022-10-09T17:24:53.862Z,1.73
2022-10-09T17:26:59.523Z,1.70
2022-10-09T17:29:07.548Z,1.52
2022-10-09T17:31:17.009Z,1.40
2022-10-09T17:33:22.032Z,1.77
2022-10-09T17:35:27.061Z,1.77
2022-10-09T17:37:33.602Z,1.48
2022-10-09T17:39:38.710Z,1.83
2022-10-09T17:41:45.518Z,2.00
2022-10-09T17:43:50.535Z,2.05
2022-10-09T17:45:58.151Z,2.72
2022-10-09T17:48:03.152Z,2.10
2022-10-09T17:50:10.026Z,2.10
2022-10-09T17:52:15.091Z,2.20
2022-10-09T17:54:20.161Z,2.65
2022-10-09T17:56:25.185Z,2.42
2022-10-09T17:58:30.898Z,2.22
2022-10-09T18:00:36.025Z,2.47
2022-10-09T18:02:43.705Z,2.55
2022-10-09T18:04:48.932Z,2.95
2022-10-09T18:06:53.974Z,2.35
2022-10-09T18:08:59.703Z,3.35
2022-10-09T18:11:08.288Z,3.28
2022-10-09T18:13:14.879Z,2.97
2022-10-09T18:15:19.989Z,3.10
2022-10-09T18:17:25.982Z,3.40
2022-10-09T18:19:34.803Z,3.15
2022-10-09T18:21:41.883Z,3.30
2022-10-09T18:23:48.198Z,3.83
2022-10-09T18:25:53.202Z,3.63
2022-10-09T18:27:58.672Z,3.05
2022-10-09T18:30:03.769Z,2.97
2022-10-09T18:32:08.853Z,3.53
2022-10-09T18:34:14.531Z,3.15
2022-10-09T18:36:25.240Z,3.25
2022-10-09T18:38:30.775Z,3.20
2022-10-09T18:40:45.173Z,3.70
2022-10-09T18:42:52.150Z,3.40
2022-10-09T18:44:57.597Z,3.08
2022-10-09T18:47:03.376Z,3.20
2022-10-09T18:49:10.182Z,3.63
2022-10-09T18:51:22.353Z,3.30
2022-10-09T18:53:27.799Z,2.75
2022-10-09T18:55:33.564Z,3.55
2022-10-09T18:57:41.721Z,3.85
2022-10-09T18:59:46.828Z,3.08
2022-10-09T19:01:51.982Z,4.03
2022-10-09T19:03:57.007Z,3.88
2022-10-09T19:06:02.130Z,3.30
2022-10-09T19:08:09.850Z,3.97
2022-10-09T19:10:14.928Z,3.38
2022-10-09T19:12:20.328Z,3.70
2022-10-09T19:14:25.389Z,3.70
2022-10-09T19:16:31.457Z,3.90
2022-10-09T19:18:37.348Z,3.53
2022-10-09T19:20:42.444Z,3.60
2022-10-09T19:22:47.870Z,3.67
2022-10-09T19:24:55.902Z,3.20
2022-10-09T19:29:07.136Z,3.05
2022-10-09T19:31:14.818Z,3.30
2022-10-09T19:33:21.079Z,3.45
2022-10-09T19:35:26.795Z,4.00
2022-10-09T19:37:33.830Z,3.47
2022-10-09T19:39:38.992Z,3.10
2022-10-09T19:41:48.738Z,4.10
2022-10-09T19:43:53.814Z,24.13
2022-10-09T19:46:05.880Z,8.13
2022-10-09T19:48:11.375Z,6.00
2022-10-09T19:50:17.592Z,5.28
2022-10-09T19:52:23.215Z,4.55
2022-10-09T19:54:28.328Z,5.20
2022-10-09T19:56:36.841Z,5.82
2022-10-09T19:58:47.158Z,5.18
2022-10-09T20:00:52.405Z,4.57
2022-10-09T20:02:57.504Z,5.93
2022-10-09T20:05:02.876Z,4.75
2022-10-09T20:07:12.465Z,3.60
2022-10-09T20:09:20.758Z,4.15
2022-10-09T20:11:27.916Z,4.13
2022-10-09T20:13:32.985Z,4.18
2022-10-09T20:15:45.468Z,4.22
2022-10-09T20:17:50.638Z,4.47
2022-10-09T20:19:55.694Z,4.20
2022-10-09T20:22:00.979Z,5.15
2022-10-09T20:24:06.208Z,7.10
2022-10-09T20:26:14.722Z,5.60
2022-10-09T20:28:19.777Z,5.50
2022-10-09T20:30:25.381Z,7.05
2022-10-09T20:32:36.419Z,7.60
2022-10-09T20:34:41.526Z,6.70
2022-10-09T20:36:46.546Z,6.97
2022-10-09T20:38:52.470Z,5.32
2022-10-09T20:40:57.622Z,6.10
2022-10-09T20:43:03.105Z,6.90
2022-10-09T20:45:09.550Z,5.85
2022-10-09T20:47:14.643Z,6.05
2022-10-09T20:49:22.283Z,6.20
2022-10-09T20:51:29.144Z,5.18
2022-10-09T20:53:34.553Z,6.32
2022-10-09T20:55:39.723Z,5.25
2022-10-09T20:57:44.811Z,4.68
2022-10-09T20:59:49.900Z,6.13
2022-10-09T21:01:54.987Z,5.32
2022-10-09T21:04:01.234Z,4.43
2022-10-09T21:06:12.788Z,4.63
2022-10-09T21:08:18.396Z,5.00
2022-10-09T21:10:23.411Z,4.47
2022-10-09T21:12:28.616Z,5.40
2022-10-09T21:14:33.736Z,5.47
2022-10-09T21:16:38.735Z,5.32
2022-10-09T21:18:44.579Z,4.93
2022-10-09T21:20:51.222Z,4.97
2022-10-09T21:22:58.908Z,5.20
2022-10-09T21:25:04.040Z,5.32
2022-10-09T21:27:09.077Z,5.05
2022-10-09T21:29:14.607Z,5.00
2022-10-09T21:31:22.868Z,4.85
2022-10-09T21:35:33.035Z,4.10
2022-10-09T21:37:38.521Z,5.15
2022-10-09T21:39:46.162Z,5.10
2022-10-09T21:41:51.324Z,5.00
2022-10-09T21:43:56.927Z,5.75
2022-10-09T21:46:01.916Z,4.68
2022-10-09T21:48:08.141Z,4.72
2022-10-09T21:50:13.514Z,5.82
2022-10-09T21:52:18.955Z,5.25
2022-10-09T21:54:25.633Z,5.65
2022-10-09T21:56:33.354Z,4.72
2022-10-09T21:58:40.033Z,5.70
2022-10-09T22:00:45.447Z,4.70
2022-10-09T22:02:50.669Z,5.50
2022-10-09T22:04:58.240Z,4.82
2022-10-09T22:07:03.453Z,5.43
2022-10-09T22:09:08.487Z,5.05
2022-10-09T22:11:14.519Z,5.05
2022-10-09T22:13:22.696Z,5.30
2022-10-09T22:15:28.017Z,5.50
2022-10-09T22:17:33.695Z,4.72
2022-10-09T22:19:38.764Z,4.63
2022-10-09T22:21:44.467Z,4.57
2022-10-09T22:23:49.850Z,4.70
2022-10-09T22:26:04.051Z,5.20
2022-10-09T22:28:10.483Z,5.18
2022-10-09T22:30:18.841Z,6.05
2022-10-09T22:32:24.231Z,5.57
2022-10-09T22:34:29.985Z,5.40
2022-10-09T22:36:36.754Z,4.40
2022-10-09T22:38:42.867Z,5.35
2022-10-09T22:40:48.716Z,4.40
2022-10-09T22:42:54.114Z,4.93
2022-10-09T22:44:59.124Z,4.20
2022-10-09T22:47:07.470Z,4.88
2022-10-09T22:49:16.346Z,5.13
2022-10-09T22:51:24.238Z,5.50
2022-10-09T22:53:30.029Z,4.65
2022-10-09T22:55:35.096Z,4.65
2022-10-09T22:57:40.147Z,4.97
2022-10-09T22:59:46.291Z,5.55
2022-10-09T23:01:54.937Z,5.90
2022-10-09T23:04:09.507Z,4.75
2022-10-09T23:06:18.163Z,4.35
2022-10-09T23:08:23.320Z,4.72
2022-10-09T23:10:28.953Z,4.50
2022-10-09T23:12:33.990Z,5.57
2022-10-09T23:14:39.324Z,5.43
2022-10-09T23:16:45.545Z,5.00
2022-10-09T23:18:50.950Z,4.88
2022-10-09T23:20:59.429Z,5.07
2022-10-09T23:25:11.562Z,4.50
2022-10-09T23:27:16.649Z,5.43
2022-10-09T23:29:23.527Z,4.50
2022-10-09T23:31:30.102Z,4.97
2022-10-09T23:33:35.803Z,4.78
2022-10-09T23:35:43.710Z,5.40
2022-10-09T23:37:52.120Z,5.47
2022-10-09T23:42:02.321Z,5.85
2022-10-09T23:44:07.749Z,4.88
2022-10-09T23:46:17.484Z,4.53
2022-10-09T23:48:22.953Z,5.32
2022-10-09T23:50:28.078Z,5.05
2022-10-09T23:52:33.163Z,4.78
2022-10-09T23:54:40.799Z,4.65
2022-10-09T23:56:46.856Z,5.15
2022-10-09T23:58:52.467Z,4.25
